sensor_id;sensor_type;location;lat;lon;timestamp;P1;durP1;ratioP1;P2;durP2;ratioP2
13028;SDS011;6581;42.662;23.402;2022-08-24T00:01:30;11.55;;;8.07;;
13028;SDS011;6581;42.662;23.402;2022-08-24T00:03:58;9.32;;;8.40;;
13028;SDS011;6581;42.662;23.402;2022-08-24T00:06:26;10.20;;;8.23;;
13028;SDS011;6581;42.662;23.402;2022-08-24T00:09:19;9.40;;;8.23;;
13028;SDS011;6581;42.662;23.402;2022-08-24T00:11:46;10.27;;;8.50;;
13028;SDS011;6581;42.662;23.402;2022-08-24T00:14:13;9.05;;;8.05;;
13028;SDS011;6581;42.662;23.402;2022-08-24T00:16:41;8.82;;;7.93;;
13028;SDS011;6581;42.662;23.402;2022-08-24T00:19:08;9.65;;;8.75;;
13028;SDS011;6581;42.662;23.402;2022-08-24T00:21:35;9.90;;;7.97;;
13028;SDS011;6581;42.662;23.402;2022-08-24T00:24:03;9.70;;;8.73;;
13028;SDS011;6581;42.662;23.402;2022-08-24T00:26:32;10.52;;;8.55;;
13028;SDS011;6581;42.662;23.402;2022-08-24T00:29:01;11.73;;;8.93;;
13028;SDS011;6581;42.662;23.402;2022-08-24T00:31:28;10.25;;;8.85;;
13028;SDS011;6581;42.662;23.402;2022-08-24T00:33:55;10.93;;;8.73;;
13028;SDS011;6581;42.662;23.402;2022-08-24T00:36:22;13.68;;;8.48;;
13028;SDS011;6581;42.662;23.402;2022-08-24T00:38:51;10.68;;;9.07;;
13028;SDS011;6581;42.662;23.402;2022-08-24T00:41:19;10.85;;;9.10;;
13028;SDS011;6581;42.662;23.402;2022-08-24T00:43:52;10.25;;;9.27;;
13028;SDS011;6581;42.662;23.402;2022-08-24T00:46:21;10.82;;;9.23;;
13028;SDS011;6581;42.662;23.402;2022-08-24T00:48:53;11.88;;;10.10;;
13028;SDS011;6581;42.662;23.402;2022-08-24T00:51:27;13.23;;;11.13;;
13028;SDS011;6581;42.662;23.402;2022-08-24T00:53:57;17.70;;;11.45;;
13028;SDS011;6581;42.662;23.402;2022-08-24T00:56:30;14.05;;;12.55;;
13028;SDS011;6581;42.662;23.402;2022-08-24T00:59:04;14.15;;;12.45;;
13028;SDS011;6581;42.662;23.402;2022-08-24T01:01:36;14.20;;;12.45;;
13028;SDS011;6581;42.662;23.402;2022-08-24T01:04:05;16.52;;;12.55;;
13028;SDS011;6581;42.662;23.402;2022-08-24T01:06:36;17.27;;;12.90;;
13028;SDS011;6581;42.662;23.402;2022-08-24T01:09:04;15.73;;;13.68;;
13028;SDS011;6581;42.662;23.402;2022-08-24T01:11:32;14.35;;;12.80;;
13028;SDS011;6581;42.662;23.402;2022-08-24T01:14:02;14.82;;;12.35;;
13028;SDS011;6581;42.662;23.402;2022-08-24T01:16:31;14.55;;;13.05;;
13028;SDS011;6581;42.662;23.402;2022-08-24T01:19:20;14.35;;;12.90;;
13028;SDS011;6581;42.662;23.402;2022-08-24T01:21:58;15.45;;;13.10;;
13028;SDS011;6581;42.662;23.402;2022-08-24T01:24:37;15.18;;;12.98;;
13028;SDS011;6581;42.662;23.402;2022-08-24T01:27:07;14.68;;;13.15;;
13028;SDS011;6581;42.662;23.402;2022-08-24T01:29:37;14.63;;;12.90;;
13028;SDS011;6581;42.662;23.402;2022-08-24T01:32:06;14.82;;;12.50;;
13028;SDS011;6581;42.662;23.402;2022-08-24T01:34:35;15.57;;;12.88;;
13028;SDS011;6581;42.662;23.402;2022-08-24T01:37:02;13.82;;;12.32;;
13028;SDS011;6581;42.662;23.402;2022-08-24T01:39:31;16.83;;;12.52;;
13028;SDS011;6581;42.662;23.402;2022-08-24T01:42:03;15.30;;;13.30;;
13028;SDS011;6581;42.662;23.402;2022-08-24T01:44:33;13.68;;;12.27;;
13028;SDS011;6581;42.662;23.402;2022-08-24T01:47:02;16.83;;;12.60;;
13028;SDS011;6581;42.662;23.402;2022-08-24T01:49:34;16.23;;;12.40;;
13028;SDS011;6581;42.662;23.402;2022-08-24T01:52:03;17.77;;;12.23;;
13028;SDS011;6581;42.662;23.402;2022-08-24T01:54:32;14.48;;;11.80;;
13028;SDS011;6581;42.662;23.402;2022-08-24T01:57:00;13.27;;;11.68;;
13028;SDS011;6581;42.662;23.402;2022-08-24T01:59:31;13.88;;;11.50;;
13028;SDS011;6581;42.662;23.402;2022-08-24T02:02:00;12.90;;;11.48;;
13028;SDS011;6581;42.662;23.402;2022-08-24T02:04:31;13.20;;;11.80;;
13028;SDS011;6581;42.662;23.402;2022-08-24T02:06:59;12.80;;;11.50;;
13028;SDS011;6581;42.662;23.402;2022-08-24T02:09:52;12.98;;;11.52;;
13028;SDS011;6581;42.662;23.402;2022-08-24T02:12:19;12.85;;;11.52;;
13028;SDS011;6581;42.662;23.402;2022-08-24T02:14:49;12.88;;;11.57;;
13028;SDS011;6581;42.662;23.402;2022-08-24T02:17:16;12.77;;;11.23;;
13028;SDS011;6581;42.662;23.402;2022-08-24T02:19:45;13.73;;;11.52;;
13028;SDS011;6581;42.662;23.402;2022-08-24T02:22:12;13.00;;;11.70;;
13028;SDS011;6581;42.662;23.402;2022-08-24T02:24:40;13.02;;;11.70;;
13028;SDS011;6581;42.662;23.402;2022-08-24T02:27:08;15.65;;;12.90;;
13028;SDS011;6581;42.662;23.402;2022-08-24T02:29:35;18.10;;;14.30;;
13028;SDS011;6581;42.662;23.402;2022-08-24T02:32:04;22.77;;;18.02;;
13028;SDS011;6581;42.662;23.402;2022-08-24T02:34:32;27.65;;;21.45;;
13028;SDS011;6581;42.662;23.402;2022-08-24T02:36:59;27.38;;;22.10;;
13028;SDS011;6581;42.662;23.402;2022-08-24T02:39:27;37.83;;;25.35;;
13028;SDS011;6581;42.662;23.402;2022-08-24T02:41:54;37.15;;;26.38;;
13028;SDS011;6581;42.662;23.402;2022-08-24T02:44:22;38.72;;;26.27;;
13028;SDS011;6581;42.662;23.402;2022-08-24T02:46:49;38.95;;;27.90;;
13028;SDS011;6581;42.662;23.402;2022-08-24T02:49:19;42.05;;;27.15;;
13028;SDS011;6581;42.662;23.402;2022-08-24T02:51:49;41.42;;;28.48;;
13028;SDS011;6581;42.662;23.402;2022-08-24T02:54:18;47.83;;;30.10;;
13028;SDS011;6581;42.662;23.402;2022-08-24T02:56:49;46.67;;;30.65;;
13028;SDS011;6581;42.662;23.402;2022-08-24T02:59:17;47.05;;;31.30;;
13028;SDS011;6581;42.662;23.402;2022-08-24T03:01:46;43.20;;;30.50;;
13028;SDS011;6581;42.662;23.402;2022-08-24T03:04:14;44.42;;;30.48;;
13028;SDS011;6581;42.662;23.402;2022-08-24T03:06:43;46.70;;;31.25;;
13028;SDS011;6581;42.662;23.402;2022-08-24T03:09:10;45.10;;;29.63;;
13028;SDS011;6581;42.662;23.402;2022-08-24T03:11:38;42.83;;;29.23;;
13028;SDS011;6581;42.662;23.402;2022-08-24T03:14:05;41.42;;;28.95;;
13028;SDS011;6581;42.662;23.402;2022-08-24T03:16:33;41.25;;;28.05;;
13028;SDS011;6581;42.662;23.402;2022-08-24T03:19:01;39.33;;;27.63;;
13028;SDS011;6581;42.662;23.402;2022-08-24T03:21:32;44.92;;;29.65;;
13028;SDS011;6581;42.662;23.402;2022-08-24T03:24:01;41.88;;;29.55;;
13028;SDS011;6581;42.662;23.402;2022-08-24T03:26:30;44.75;;;29.52;;
13028;SDS011;6581;42.662;23.402;2022-08-24T03:28:58;42.80;;;29.27;;
13028;SDS011;6581;42.662;23.402;2022-08-24T03:31:25;42.67;;;29.15;;
13028;SDS011;6581;42.662;23.402;2022-08-24T03:33:52;38.70;;;27.98;;
13028;SDS011;6581;42.662;23.402;2022-08-24T03:36:20;38.40;;;28.13;;
13028;SDS011;6581;42.662;23.402;2022-08-24T03:38:48;37.97;;;27.63;;
13028;SDS011;6581;42.662;23.402;2022-08-24T03:41:43;36.35;;;26.80;;
13028;SDS011;6581;42.662;23.402;2022-08-24T03:44:10;32.25;;;25.73;;
13028;SDS011;6581;42.662;23.402;2022-08-24T03:46:38;36.60;;;26.13;;
13028;SDS011;6581;42.662;23.402;2022-08-24T03:49:07;33.53;;;25.38;;
13028;SDS011;6581;42.662;23.402;2022-08-24T03:51:36;30.15;;;23.95;;
13028;SDS011;6581;42.662;23.402;2022-08-24T03:54:05;30.75;;;25.00;;
13028;SDS011;6581;42.662;23.402;2022-08-24T03:56:35;31.33;;;24.23;;
13028;SDS011;6581;42.662;23.402;2022-08-24T03:59:04;27.40;;;21.52;;
13028;SDS011;6581;42.662;23.402;2022-08-24T04:01:37;25.73;;;21.95;;
13028;SDS011;6581;42.662;23.402;2022-08-24T04:04:06;23.10;;;19.42;;
13028;SDS011;6581;42.662;23.402;2022-08-24T04:06:35;21.23;;;17.92;;
13028;SDS011;6581;42.662;23.402;2022-08-24T04:09:03;18.08;;;16.17;;
13028;SDS011;6581;42.662;23.402;2022-08-24T04:11:34;17.52;;;15.63;;
13028;SDS011;6581;42.662;23.402;2022-08-24T04:14:02;20.27;;;15.82;;
13028;SDS011;6581;42.662;23.402;2022-08-24T04:16:33;18.83;;;16.15;;
13028;SDS011;6581;42.662;23.402;2022-08-24T04:19:12;16.75;;;15.05;;
13028;SDS011;6581;42.662;23.402;2022-08-24T04:21:40;16.20;;;14.20;;
13028;SDS011;6581;42.662;23.402;2022-08-24T04:24:10;16.80;;;14.55;;
13028;SDS011;6581;42.662;23.402;2022-08-24T04:26:38;25.80;;;22.63;;
13028;SDS011;6581;42.662;23.402;2022-08-24T04:29:10;24.23;;;20.83;;
13028;SDS011;6581;42.662;23.402;2022-08-24T04:31:43;20.75;;;17.00;;
13028;SDS011;6581;42.662;23.402;2022-08-24T04:34:11;18.17;;;16.27;;
13028;SDS011;6581;42.662;23.402;2022-08-24T04:36:41;15.38;;;13.00;;
13028;SDS011;6581;42.662;23.402;2022-08-24T04:39:09;14.07;;;12.38;;
13028;SDS011;6581;42.662;23.402;2022-08-24T04:41:45;13.90;;;12.50;;
13028;SDS011;6581;42.662;23.402;2022-08-24T04:44:16;13.63;;;12.18;;
13028;SDS011;6581;42.662;23.402;2022-08-24T04:46:43;13.63;;;11.60;;
13028;SDS011;6581;42.662;23.402;2022-08-24T04:49:11;14.85;;;11.77;;
13028;SDS011;6581;42.662;23.402;2022-08-24T04:51:38;13.13;;;10.65;;
13028;SDS011;6581;42.662;23.402;2022-08-24T04:54:07;12.85;;;10.57;;
13028;SDS011;6581;42.662;23.402;2022-08-24T04:56:34;12.70;;;11.10;;
13028;SDS011;6581;42.662;23.402;2022-08-24T04:59:03;13.68;;;12.20;;
13028;SDS011;6581;42.662;23.402;2022-08-24T05:01:34;13.88;;;11.07;;
13028;SDS011;6581;42.662;23.402;2022-08-24T05:04:04;13.10;;;11.73;;
13028;SDS011;6581;42.662;23.402;2022-08-24T05:06:32;13.32;;;11.52;;
13028;SDS011;6581;42.662;23.402;2022-08-24T05:09:01;11.95;;;10.85;;
13028;SDS011;6581;42.662;23.402;2022-08-24T05:11:29;12.20;;;10.75;;
13028;SDS011;6581;42.662;23.402;2022-08-24T05:13:57;16.30;;;10.82;;
13028;SDS011;6581;42.662;23.402;2022-08-24T05:16:25;12.88;;;11.57;;
13028;SDS011;6581;42.662;23.402;2022-08-24T05:19:00;14.60;;;11.25;;
13028;SDS011;6581;42.662;23.402;2022-08-24T05:21:33;12.63;;;11.40;;
13028;SDS011;6581;42.662;23.402;2022-08-24T05:24:00;12.80;;;11.50;;
13028;SDS011;6581;42.662;23.402;2022-08-24T05:26:30;12.35;;;10.98;;
13028;SDS011;6581;42.662;23.402;2022-08-24T05:28:59;12.48;;;10.27;;
13028;SDS011;6581;42.662;23.402;2022-08-24T05:31:42;12.15;;;10.68;;
13028;SDS011;6581;42.662;23.402;2022-08-24T05:34:12;13.32;;;11.38;;
13028;SDS011;6581;42.662;23.402;2022-08-24T05:36:40;12.65;;;11.27;;
13028;SDS011;6581;42.662;23.402;2022-08-24T05:39:17;16.00;;;10.30;;
13028;SDS011;6581;42.662;23.402;2022-08-24T05:41:50;10.93;;;9.82;;
13028;SDS011;6581;42.662;23.402;2022-08-24T05:44:23;11.00;;;9.70;;
13028;SDS011;6581;42.662;23.402;2022-08-24T05:46:51;13.07;;;11.10;;
13028;SDS011;6581;42.662;23.402;2022-08-24T05:49:20;9.05;;;8.20;;
13028;SDS011;6581;42.662;23.402;2022-08-24T05:51:47;10.25;;;8.80;;
13028;SDS011;6581;42.662;23.402;2022-08-24T05:54:15;10.90;;;8.98;;
13028;SDS011;6581;42.662;23.402;2022-08-24T05:57:03;13.98;;;8.73;;
13028;SDS011;6581;42.662;23.402;2022-08-24T05:59:51;9.00;;;8.20;;
13028;SDS011;6581;42.662;23.402;2022-08-24T06:02:19;9.90;;;8.90;;
13028;SDS011;6581;42.662;23.402;2022-08-24T06:04:49;10.43;;;9.15;;
13028;SDS011;6581;42.662;23.402;2022-08-24T06:07:18;11.73;;;10.48;;
13028;SDS011;6581;42.662;23.402;2022-08-24T06:09:52;10.75;;;9.65;;
13028;SDS011;6581;42.662;23.402;2022-08-24T06:12:19;11.02;;;9.10;;
13028;SDS011;6581;42.662;23.402;2022-08-24T06:14:46;10.48;;;8.40;;
13028;SDS011;6581;42.662;23.402;2022-08-24T06:17:18;10.00;;;7.45;;
13028;SDS011;6581;42.662;23.402;2022-08-24T06:19:45;9.05;;;8.00;;
13028;SDS011;6581;42.662;23.402;2022-08-24T06:22:14;9.00;;;8.07;;
13028;SDS011;6581;42.662;23.402;2022-08-24T06:24:42;8.30;;;7.60;;
13028;SDS011;6581;42.662;23.402;2022-08-24T06:27:28;8.52;;;7.72;;
13028;SDS011;6581;42.662;23.402;2022-08-24T06:29:57;8.70;;;7.47;;
13028;SDS011;6581;42.662;23.402;2022-08-24T06:32:46;8.93;;;8.05;;
13028;SDS011;6581;42.662;23.402;2022-08-24T06:35:36;9.18;;;8.27;;
13028;SDS011;6581;42.662;23.402;2022-08-24T06:38:06;7.88;;;7.18;;
13028;SDS011;6581;42.662;23.402;2022-08-24T06:40:34;8.90;;;8.00;;
13028;SDS011;6581;42.662;23.402;2022-08-24T06:43:02;8.73;;;7.88;;
13028;SDS011;6581;42.662;23.402;2022-08-24T06:45:39;9.80;;;8.77;;
13028;SDS011;6581;42.662;23.402;2022-08-24T06:48:07;10.95;;;8.10;;
13028;SDS011;6581;42.662;23.402;2022-08-24T06:50:37;8.50;;;7.60;;
13028;SDS011;6581;42.662;23.402;2022-08-24T06:53:07;11.30;;;8.75;;
13028;SDS011;6581;42.662;23.402;2022-08-24T06:55:43;12.50;;;9.00;;
13028;SDS011;6581;42.662;23.402;2022-08-24T06:58:12;10.25;;;8.75;;
13028;SDS011;6581;42.662;23.402;2022-08-24T07:00:40;10.13;;;9.10;;
13028;SDS011;6581;42.662;23.402;2022-08-24T07:03:08;9.23;;;8.15;;
13028;SDS011;6581;42.662;23.402;2022-08-24T07:05:50;7.57;;;6.88;;
13028;SDS011;6581;42.662;23.402;2022-08-24T07:09:04;8.68;;;7.00;;
13028;SDS011;6581;42.662;23.402;2022-08-24T07:11:32;7.45;;;6.75;;
13028;SDS011;6581;42.662;23.402;2022-08-24T07:13:59;7.38;;;6.47;;
13028;SDS011;6581;42.662;23.402;2022-08-24T07:16:27;6.65;;;6.05;;
13028;SDS011;6581;42.662;23.402;2022-08-24T07:18:59;5.72;;;5.22;;
13028;SDS011;6581;42.662;23.402;2022-08-24T07:21:28;6.65;;;5.78;;
13028;SDS011;6581;42.662;23.402;2022-08-24T07:24:01;5.95;;;5.47;;
13028;SDS011;6581;42.662;23.402;2022-08-24T07:26:44;6.28;;;5.50;;
13028;SDS011;6581;42.662;23.402;2022-08-24T07:29:18;6.22;;;5.63;;
13028;SDS011;6581;42.662;23.402;2022-08-24T07:31:47;6.18;;;5.57;;
13028;SDS011;6581;42.662;23.402;2022-08-24T07:34:24;6.10;;;5.60;;
13028;SDS011;6581;42.662;23.402;2022-08-24T07:37:02;6.45;;;5.82;;
13028;SDS011;6581;42.662;23.402;2022-08-24T07:39:35;6.50;;;5.82;;
13028;SDS011;6581;42.662;23.402;2022-08-24T07:42:08;6.75;;;5.45;;
13028;SDS011;6581;42.662;23.402;2022-08-24T07:44:41;5.25;;;4.85;;
13028;SDS011;6581;42.662;23.402;2022-08-24T07:47:32;5.25;;;4.85;;
13028;SDS011;6581;42.662;23.402;2022-08-24T07:50:09;5.70;;;4.85;;
13028;SDS011;6581;42.662;23.402;2022-08-24T07:52:41;5.82;;;4.80;;
13028;SDS011;6581;42.662;23.402;2022-08-24T07:55:15;5.18;;;4.72;;
13028;SDS011;6581;42.662;23.402;2022-08-24T07:57:46;5.97;;;5.15;;
13028;SDS011;6581;42.662;23.402;2022-08-24T08:00:27;6.22;;;4.90;;
13028;SDS011;6581;42.662;23.402;2022-08-24T08:03:05;5.15;;;4.60;;
13028;SDS011;6581;42.662;23.402;2022-08-24T08:05:36;6.97;;;4.35;;
13028;SDS011;6581;42.662;23.402;2022-08-24T08:08:06;5.05;;;4.65;;
13028;SDS011;6581;42.662;23.402;2022-08-24T08:10:38;5.00;;;4.40;;
13028;SDS011;6581;42.662;23.402;2022-08-24T08:13:07;4.68;;;4.20;;
13028;SDS011;6581;42.662;23.402;2022-08-24T08:15:36;4.82;;;4.38;;
13028;SDS011;6581;42.662;23.402;2022-08-24T08:18:07;4.97;;;4.47;;
13028;SDS011;6581;42.662;23.402;2022-08-24T08:21:02;5.32;;;4.70;;
13028;SDS011;6581;42.662;23.402;2022-08-24T08:23:30;5.20;;;4.63;;
13028;SDS011;6581;42.662;23.402;2022-08-24T08:26:24;5.70;;;4.95;;
13028;SDS011;6581;42.662;23.402;2022-08-24T08:29:08;5.28;;;4.82;;
13028;SDS011;6581;42.662;23.402;2022-08-24T08:31:38;5.88;;;4.90;;
13028;SDS011;6581;42.662;23.402;2022-08-24T08:34:06;5.15;;;4.75;;
13028;SDS011;6581;42.662;23.402;2022-08-24T08:36:35;4.60;;;4.28;;
13028;SDS011;6581;42.662;23.402;2022-08-24T08:39:04;4.90;;;4.50;;
13028;SDS011;6581;42.662;23.402;2022-08-24T08:44:59;5.10;;;4.60;;
13028;SDS011;6581;42.662;23.402;2022-08-24T08:47:48;5.10;;;4.70;;
13028;SDS011;6581;42.662;23.402;2022-08-24T08:50:38;6.40;;;4.75;;
13028;SDS011;6581;42.662;23.402;2022-08-24T08:53:35;5.18;;;4.68;;
13028;SDS011;6581;42.662;23.402;2022-08-24T08:56:21;7.03;;;5.15;;
13028;SDS011;6581;42.662;23.402;2022-08-24T08:58:59;6.25;;;4.90;;
13028;SDS011;6581;42.662;23.402;2022-08-24T09:01:51;5.30;;;4.88;;
13028;SDS011;6581;42.662;23.402;2022-08-24T09:07:32;5.78;;;5.07;;
13028;SDS011;6581;42.662;23.402;2022-08-24T09:10:20;5.90;;;5.13;;
13028;SDS011;6581;42.662;23.402;2022-08-24T09:13:03;5.57;;;5.13;;
13028;SDS011;6581;42.662;23.402;2022-08-24T09:15:53;6.18;;;4.80;;
13028;SDS011;6581;42.662;23.402;2022-08-24T09:18:49;5.72;;;5.13;;
13028;SDS011;6581;42.662;23.402;2022-08-24T09:21:33;5.85;;;5.25;;
13028;SDS011;6581;42.662;23.402;2022-08-24T09:24:19;5.60;;;5.10;;
13028;SDS011;6581;42.662;23.402;2022-08-24T09:27:06;6.38;;;5.07;;
13028;SDS011;6581;42.662;23.402;2022-08-24T09:30:08;5.82;;;5.07;;
13028;SDS011;6581;42.662;23.402;2022-08-24T09:33:05;5.20;;;4.57;;
13028;SDS011;6581;42.662;23.402;2022-08-24T09:35:42;10.02;;;5.78;;
13028;SDS011;6581;42.662;23.402;2022-08-24T09:38:53;6.43;;;5.35;;
13028;SDS011;6581;42.662;23.402;2022-08-24T09:41:37;5.85;;;5.30;;
13028;SDS011;6581;42.662;23.402;2022-08-24T09:44:34;6.50;;;5.80;;
13028;SDS011;6581;42.662;23.402;2022-08-24T09:50:28;7.10;;;6.50;;
13028;SDS011;6581;42.662;23.402;2022-08-24T09:56:32;7.53;;;6.32;;
13028;SDS011;6581;42.662;23.402;2022-08-24T09:59:17;6.40;;;5.57;;
13028;SDS011;6581;42.662;23.402;2022-08-24T10:02:27;6.45;;;5.30;;
13028;SDS011;6581;42.662;23.402;2022-08-24T10:05:08;6.22;;;5.15;;
13028;SDS011;6581;42.662;23.402;2022-08-24T10:07:49;8.60;;;6.38;;
13028;SDS011;6581;42.662;23.402;2022-08-24T10:10:26;12.35;;;11.05;;
13028;SDS011;6581;42.662;23.402;2022-08-24T10:13:01;5.38;;;4.90;;
13028;SDS011;6581;42.662;23.402;2022-08-24T10:15:41;7.95;;;5.32;;
13028;SDS011;6581;42.662;23.402;2022-08-24T10:18:24;6.47;;;5.03;;
13028;SDS011;6581;42.662;23.402;2022-08-24T10:21:05;5.07;;;4.68;;
13028;SDS011;6581;42.662;23.402;2022-08-24T10:26:42;7.22;;;5.30;;
13028;SDS011;6581;42.662;23.402;2022-08-24T10:29:38;7.38;;;5.00;;
13028;SDS011;6581;42.662;23.402;2022-08-24T10:32:35;5.68;;;5.18;;
13028;SDS011;6581;42.662;23.402;2022-08-24T10:35:12;8.98;;;5.30;;
13028;SDS011;6581;42.662;23.402;2022-08-24T10:37:43;6.85;;;5.50;;
13028;SDS011;6581;42.662;23.402;2022-08-24T10:40:48;6.20;;;5.15;;
13028;SDS011;6581;42.662;23.402;2022-08-24T10:43:47;7.97;;;5.03;;
13028;SDS011;6581;42.662;23.402;2022-08-24T10:46:36;7.85;;;5.40;;
13028;SDS011;6581;42.662;23.402;2022-08-24T10:55:23;6.80;;;5.50;;
13028;SDS011;6581;42.662;23.402;2022-08-24T10:57:57;6.47;;;4.95;;
13028;SDS011;6581;42.662;23.402;2022-08-24T11:00:36;8.23;;;4.85;;
13028;SDS011;6581;42.662;23.402;2022-08-24T11:03:05;5.82;;;4.88;;
13028;SDS011;6581;42.662;23.402;2022-08-24T11:05:39;5.88;;;4.95;;
13028;SDS011;6581;42.662;23.402;2022-08-24T11:08:14;8.13;;;5.18;;
13028;SDS011;6581;42.662;23.402;2022-08-24T11:10:46;7.32;;;5.32;;
13028;SDS011;6581;42.662;23.402;2022-08-24T11:13:33;7.47;;;4.93;;
13028;SDS011;6581;42.662;23.402;2022-08-24T11:16:03;5.97;;;5.25;;
13028;SDS011;6581;42.662;23.402;2022-08-24T11:21:31;5.75;;;4.60;;
13028;SDS011;6581;42.662;23.402;2022-08-24T11:24:02;7.78;;;5.35;;
13028;SDS011;6581;42.662;23.402;2022-08-24T11:26:34;5.90;;;4.88;;
13028;SDS011;6581;42.662;23.402;2022-08-24T11:29:57;7.43;;;5.40;;
13028;SDS011;6581;42.662;23.402;2022-08-24T11:32:37;7.13;;;5.00;;
13028;SDS011;6581;42.662;23.402;2022-08-24T11:35:08;8.70;;;5.15;;
13028;SDS011;6581;42.662;23.402;2022-08-24T11:37:43;7.38;;;4.70;;
13028;SDS011;6581;42.662;23.402;2022-08-24T11:40:12;9.60;;;5.22;;
13028;SDS011;6581;42.662;23.402;2022-08-24T11:42:45;8.80;;;4.88;;
13028;SDS011;6581;42.662;23.402;2022-08-24T11:45:22;4.95;;;4.50;;
13028;SDS011;6581;42.662;23.402;2022-08-24T11:48:01;6.20;;;5.03;;
13028;SDS011;6581;42.662;23.402;2022-08-24T11:50:42;6.32;;;4.90;;
13028;SDS011;6581;42.662;23.402;2022-08-24T11:53:23;6.10;;;4.90;;
13028;SDS011;6581;42.662;23.402;2022-08-24T11:56:26;7.53;;;5.25;;
13028;SDS011;6581;42.662;23.402;2022-08-24T11:59:02;6.63;;;5.18;;
13028;SDS011;6581;42.662;23.402;2022-08-24T12:01:38;7.72;;;5.30;;
13028;SDS011;6581;42.662;23.402;2022-08-24T12:04:22;6.25;;;5.65;;
13028;SDS011;6581;42.662;23.402;2022-08-24T12:07:02;6.85;;;5.95;;
13028;SDS011;6581;42.662;23.402;2022-08-24T12:09:46;9.25;;;5.75;;
13028;SDS011;6581;42.662;23.402;2022-08-24T12:15:34;7.82;;;5.68;;
13028;SDS011;6581;42.662;23.402;2022-08-24T12:18:11;6.03;;;5.40;;
13028;SDS011;6581;42.662;23.402;2022-08-24T12:20:49;6.68;;;5.85;;
13028;SDS011;6581;42.662;23.402;2022-08-24T12:23:19;8.98;;;5.78;;
13028;SDS011;6581;42.662;23.402;2022-08-24T12:25:53;9.40;;;6.05;;
13028;SDS011;6581;42.662;23.402;2022-08-24T12:28:29;7.53;;;6.20;;
13028;SDS011;6581;42.662;23.402;2022-08-24T12:31:02;8.18;;;6.13;;
13028;SDS011;6581;42.662;23.402;2022-08-24T12:33:38;6.43;;;5.82;;
13028;SDS011;6581;42.662;23.402;2022-08-24T12:36:16;6.53;;;5.93;;
13028;SDS011;6581;42.662;23.402;2022-08-24T12:38:51;9.80;;;5.85;;
13028;SDS011;6581;42.662;23.402;2022-08-24T12:41:30;7.78;;;6.07;;
13028;SDS011;6581;42.662;23.402;2022-08-24T12:44:01;9.60;;;6.00;;
13028;SDS011;6581;42.662;23.402;2022-08-24T12:46:34;6.78;;;5.90;;
13028;SDS011;6581;42.662;23.402;2022-08-24T12:49:07;9.60;;;5.90;;
13028;SDS011;6581;42.662;23.402;2022-08-24T12:51:46;6.72;;;6.07;;
13028;SDS011;6581;42.662;23.402;2022-08-24T12:54:41;7.18;;;6.10;;
13028;SDS011;6581;42.662;23.402;2022-08-24T12:57:33;12.50;;;6.35;;
13028;SDS011;6581;42.662;23.402;2022-08-24T13:00:11;9.55;;;6.35;;
13028;SDS011;6581;42.662;23.402;2022-08-24T13:02:42;7.82;;;6.22;;
13028;SDS011;6581;42.662;23.402;2022-08-24T13:08:08;9.00;;;6.55;;
13028;SDS011;6581;42.662;23.402;2022-08-24T13:10:38;11.63;;;7.10;;
13028;SDS011;6581;42.662;23.402;2022-08-24T13:13:11;10.35;;;7.32;;
13028;SDS011;6581;42.662;23.402;2022-08-24T13:15:50;9.43;;;6.78;;
13028;SDS011;6581;42.662;23.402;2022-08-24T13:21:55;9.43;;;7.00;;
13028;SDS011;6581;42.662;23.402;2022-08-24T13:31:09;14.20;;;7.25;;
13028;SDS011;6581;42.662;23.402;2022-08-24T13:33:43;9.25;;;7.07;;
13028;SDS011;6581;42.662;23.402;2022-08-24T13:36:39;11.02;;;7.22;;
13028;SDS011;6581;42.662;23.402;2022-08-24T13:45:36;9.25;;;7.00;;
13028;SDS011;6581;42.662;23.402;2022-08-24T13:48:14;9.27;;;7.03;;
13028;SDS011;6581;42.662;23.402;2022-08-24T13:51:10;8.77;;;6.63;;
13028;SDS011;6581;42.662;23.402;2022-08-24T13:53:55;9.85;;;6.88;;
13028;SDS011;6581;42.662;23.402;2022-08-24T13:57:02;9.60;;;7.32;;
13028;SDS011;6581;42.662;23.402;2022-08-24T14:02:49;9.02;;;7.15;;
13028;SDS011;6581;42.662;23.402;2022-08-24T14:05:27;7.97;;;6.80;;
13028;SDS011;6581;42.662;23.402;2022-08-24T14:08:29;11.10;;;6.95;;
13028;SDS011;6581;42.662;23.402;2022-08-24T14:11:08;12.70;;;6.38;;
13028;SDS011;6581;42.662;23.402;2022-08-24T14:13:50;7.80;;;6.22;;
13028;SDS011;6581;42.662;23.402;2022-08-24T14:16:34;10.80;;;6.15;;
13028;SDS011;6581;42.662;23.402;2022-08-24T14:19:43;9.40;;;6.38;;
13028;SDS011;6581;42.662;23.402;2022-08-24T14:22:23;9.65;;;6.60;;
13028;SDS011;6581;42.662;23.402;2022-08-24T14:25:04;11.65;;;6.93;;
13028;SDS011;6581;42.662;23.402;2022-08-24T14:27:42;9.35;;;6.80;;
13028;SDS011;6581;42.662;23.402;2022-08-24T14:33:09;9.90;;;6.45;;
13028;SDS011;6581;42.662;23.402;2022-08-24T14:35:43;9.05;;;6.13;;
13028;SDS011;6581;42.662;23.402;2022-08-24T14:38:53;10.77;;;6.80;;
13028;SDS011;6581;42.662;23.402;2022-08-24T14:41:42;8.35;;;6.57;;
13028;SDS011;6581;42.662;23.402;2022-08-24T14:44:50;11.43;;;6.43;;
13028;SDS011;6581;42.662;23.402;2022-08-24T14:47:35;13.43;;;6.25;;
13028;SDS011;6581;42.662;23.402;2022-08-24T14:50:13;7.75;;;6.45;;
13028;SDS011;6581;42.662;23.402;2022-08-24T14:55:51;15.48;;;6.88;;
13028;SDS011;6581;42.662;23.402;2022-08-24T14:58:29;9.82;;;6.05;;
13028;SDS011;6581;42.662;23.402;2022-08-24T15:09:54;10.82;;;6.25;;
13028;SDS011;6581;42.662;23.402;2022-08-24T15:12:31;10.13;;;7.07;;
13028;SDS011;6581;42.662;23.402;2022-08-24T15:15:10;12.45;;;7.00;;
13028;SDS011;6581;42.662;23.402;2022-08-24T15:17:41;13.20;;;7.35;;
13028;SDS011;6581;42.662;23.402;2022-08-24T15:20:17;11.82;;;7.20;;
13028;SDS011;6581;42.662;23.402;2022-08-24T15:22:53;13.07;;;7.63;;
13028;SDS011;6581;42.662;23.402;2022-08-24T15:25:29;10.60;;;8.18;;
13028;SDS011;6581;42.662;23.402;2022-08-24T15:28:06;11.73;;;7.75;;
13028;SDS011;6581;42.662;23.402;2022-08-24T15:30:36;14.98;;;7.70;;
13028;SDS011;6581;42.662;23.402;2022-08-24T15:33:07;11.68;;;7.57;;
13028;SDS011;6581;42.662;23.402;2022-08-24T15:35:37;14.85;;;7.75;;
13028;SDS011;6581;42.662;23.402;2022-08-24T15:38:19;14.20;;;7.70;;
13028;SDS011;6581;42.662;23.402;2022-08-24T15:40:49;12.23;;;7.82;;
13028;SDS011;6581;42.662;23.402;2022-08-24T15:43:19;13.82;;;7.88;;
13028;SDS011;6581;42.662;23.402;2022-08-24T15:45:48;12.30;;;7.95;;
13028;SDS011;6581;42.662;23.402;2022-08-24T15:48:18;13.30;;;7.47;;
13028;SDS011;6581;42.662;23.402;2022-08-24T15:51:29;11.32;;;7.20;;
13028;SDS011;6581;42.662;23.402;2022-08-24T15:54:12;15.27;;;7.30;;
13028;SDS011;6581;42.662;23.402;2022-08-24T15:56:42;16.25;;;7.57;;
13028;SDS011;6581;42.662;23.402;2022-08-24T15:59:23;13.07;;;7.60;;
13028;SDS011;6581;42.662;23.402;2022-08-24T16:02:19;15.00;;;7.70;;
13028;SDS011;6581;42.662;23.402;2022-08-24T16:04:51;16.02;;;7.68;;
13028;SDS011;6581;42.662;23.402;2022-08-24T16:07:29;14.57;;;7.55;;
13028;SDS011;6581;42.662;23.402;2022-08-24T16:10:02;25.42;;;9.82;;
13028;SDS011;6581;42.662;23.402;2022-08-24T16:12:32;19.85;;;8.27;;
13028;SDS011;6581;42.662;23.402;2022-08-24T16:15:08;22.70;;;9.18;;
13028;SDS011;6581;42.662;23.402;2022-08-24T16:17:40;28.30;;;17.60;;
13028;SDS011;6581;42.662;23.402;2022-08-24T16:20:12;18.02;;;7.70;;
13028;SDS011;6581;42.662;23.402;2022-08-24T16:22:54;28.88;;;15.80;;
13028;SDS011;6581;42.662;23.402;2022-08-24T16:25:28;22.65;;;10.80;;
13028;SDS011;6581;42.662;23.402;2022-08-24T16:28:00;18.45;;;10.75;;
13028;SDS011;6581;42.662;23.402;2022-08-24T16:30:42;20.45;;;8.77;;